Time;durP1;ratioP1;P1;durP2;ratioP2;P2;SDS_P1;SDS_P2;PMS_P1;PMS_P2;Temp;Humidity;BMP_temperature;BMP_pressure;BME280_temperature;BME280_humidity;BME280_pressure;Samples;Min_cycle;Max_cycle;Signal;HPM_P1;HPM_P2
2023/08/08 00:02:20;;;;;;;4.45;3.50;;;;;;;;;;5063629;28;20438;-75
2023/08/08 00:04:48;;;;;;;5.57;3.28;;;;;;;;;;5067212;28;20109;-75
2023/08/08 00:07:15;;;;;;;4.50;3.33;;;;;;;;;;5054761;28;20025;-74
2023/08/08 00:09:41;;;;;;;6.20;3.40;;;;;;;;;;5059835;28;20059;-75
2023/08/08 00:12:07;;;;;;;8.18;3.78;;;;;;;;;;5073798;28;20550;-75
2023/08/08 00:14:33;;;;;;;3.72;3.15;;;;;;;;;;5048330;28;20037;-75
2023/08/08 00:16:59;;;;;;;3.78;2.85;;;;;;;;;;5051584;28;20610;-75
2023/08/08 00:19:25;;;;;;;3.55;3.13;;;;;;;;;;5053806;28;20041;-75
2023/08/08 00:21:51;;;;;;;5.90;3.22;;;;;;;;;;5061274;28;20032;-76
2023/08/08 00:24:17;;;;;;;4.07;3.08;;;;;;;;;;5060561;28;20515;-75
2023/08/08 00:26:43;;;;;;;4.35;3.38;;;;;;;;;;5059607;28;20080;-74
2023/08/08 00:29:10;;;;;;;4.30;3.08;;;;;;;;;;5048829;28;20051;-75
2023/08/08 00:31:36;;;;;;;5.95;3.35;;;;;;;;;;5075678;28;20400;-75
2023/08/08 00:34:02;;;;;;;3.55;2.60;;;;;;;;;;5056183;28;20142;-75
2023/08/08 00:36:28;;;;;;;15.32;3.67;;;;;;;;;;5062721;28;20047;-75
2023/08/08 00:38:54;;;;;;;3.58;3.15;;;;;;;;;;5058125;28;20020;-75
2023/08/08 00:41:21;;;;;;;6.45;3.17;;;;;;;;;;5062611;28;20400;-75
2023/08/08 00:43:47;;;;;;;4.05;2.97;;;;;;;;;;5058342;28;20024;-75
2023/08/08 00:46:13;;;;;;;4.28;3.00;;;;;;;;;;5056029;28;20036;-74
2023/08/08 00:48:39;;;;;;;5.90;3.17;;;;;;;;;;5056173;28;20074;-75
2023/08/08 00:51:06;;;;;;;5.07;3.17;;;;;;;;;;5058089;28;20036;-74
2023/08/08 00:53:32;;;;;;;5.93;3.20;;;;;;;;;;5065372;28;20361;-75
2023/08/08 00:56:01;;;;;;;6.55;3.17;;;;;;;;;;5053174;28;20467;-75
2023/08/08 00:58:27;;;;;;;4.40;3.25;;;;;;;;;;5055412;28;20052;-76
2023/08/08 01:00:57;;;;;;;6.55;3.25;;;;;;;;;;5056924;28;20028;-74
2023/08/08 01:03:23;;;;;;;3.47;3.00;;;;;;;;;;5063082;28;20937;-74
2023/08/08 01:05:54;;;;;;;7.20;3.30;;;;;;;;;;5058401;28;20151;-75
2023/08/08 01:08:23;;;;;;;4.13;3.38;;;;;;;;;;5060511;28;20036;-75
2023/08/08 01:10:49;;;;;;;4.43;3.20;;;;;;;;;;5051726;28;20028;-75
2023/08/08 01:13:18;;;;;;;3.22;2.92;;;;;;;;;;5058906;28;20477;-75
2023/08/08 01:15:44;;;;;;;3.55;3.05;;;;;;;;;;5064102;28;20028;-75
2023/08/08 01:18:11;;;;;;;3.50;3.17;;;;;;;;;;5060155;28;20021;-75
2023/08/08 01:20:38;;;;;;;4.30;3.10;;;;;;;;;;5062652;28;20054;-75
2023/08/08 01:23:14;;;;;;;4.80;3.50;;;;;;;;;;5058124;28;20021;-75
2023/08/08 01:25:41;;;;;;;5.68;3.88;;;;;;;;;;5054082;28;20493;-76
2023/08/08 01:28:07;;;;;;;6.45;2.97;;;;;;;;;;5076724;28;20392;-75
2023/08/08 01:30:34;;;;;;;3.67;3.20;;;;;;;;;;5085162;28;20369;-75
2023/08/08 01:33:00;;;;;;;5.85;3.10;;;;;;;;;;5051830;28;20051;-75
2023/08/08 01:35:28;;;;;;;3.97;3.50;;;;;;;;;;5059018;28;20072;-75
2023/08/08 01:37:55;;;;;;;4.15;3.00;;;;;;;;;;5048895;28;20032;-76
2023/08/08 01:40:22;;;;;;;5.13;3.40;;;;;;;;;;5059481;28;20036;-75
2023/08/08 01:42:51;;;;;;;4.85;3.30;;;;;;;;;;5059341;28;20035;-75
2023/08/08 01:45:17;;;;;;;5.20;3.53;;;;;;;;;;5066010;28;20029;-75
2023/08/08 01:47:44;;;;;;;9.13;3.92;;;;;;;;;;5054181;28;20433;-75
2023/08/08 01:50:10;;;;;;;5.57;3.50;;;;;;;;;;5079522;28;20035;-75
2023/08/08 01:52:37;;;;;;;6.90;4.25;;;;;;;;;;5069411;28;20035;-75
2023/08/08 01:55:03;;;;;;;7.07;4.10;;;;;;;;;;5063602;28;20052;-75
2023/08/08 01:57:29;;;;;;;5.03;3.65;;;;;;;;;;5056317;28;20040;-75
2023/08/08 01:59:55;;;;;;;3.67;3.10;;;;;;;;;;5060655;28;20028;-75
2023/08/08 02:02:21;;;;;;;4.13;3.35;;;;;;;;;;5054252;28;20205;-75
2023/08/08 02:04:47;;;;;;;4.53;3.13;;;;;;;;;;5056051;28;20021;-75
2023/08/08 02:07:14;;;;;;;3.45;3.00;;;;;;;;;;5062618;28;20499;-75
2023/08/08 02:09:40;;;;;;;5.15;3.45;;;;;;;;;;5053559;28;20524;-75
2023/08/08 02:12:06;;;;;;;5.47;3.15;;;;;;;;;;5056547;28;20124;-75
2023/08/08 02:14:32;;;;;;;4.18;3.00;;;;;;;;;;5041650;28;20036;-75
2023/08/08 02:16:58;;;;;;;4.03;2.85;;;;;;;;;;5053895;28;20392;-75
2023/08/08 02:19:27;;;;;;;7.50;3.55;;;;;;;;;;5058791;28;20024;-75
2023/08/08 02:21:53;;;;;;;6.13;3.60;;;;;;;;;;5065104;28;20122;-74
2023/08/08 02:24:19;;;;;;;5.15;3.70;;;;;;;;;;5054581;28;20044;-75
2023/08/08 02:26:45;;;;;;;5.85;4.10;;;;;;;;;;5060949;28;20420;-75
2023/08/08 02:29:11;;;;;;;4.65;3.92;;;;;;;;;;5070164;28;20056;-75
2023/08/08 02:31:37;;;;;;;6.38;3.60;;;;;;;;;;5053574;28;20407;-75
2023/08/08 02:34:03;;;;;;;6.43;4.05;;;;;;;;;;5058361;28;20029;-75
2023/08/08 02:36:29;;;;;;;5.03;3.78;;;;;;;;;;5055598;28;20119;-75
2023/08/08 02:38:55;;;;;;;6.97;3.75;;;;;;;;;;5052097;28;20024;-75
2023/08/08 02:41:22;;;;;;;4.60;3.60;;;;;;;;;;5064913;28;20195;-75
2023/08/08 02:43:48;;;;;;;4.35;3.20;;;;;;;;;;5057731;28;20034;-76
2023/08/08 02:46:14;;;;;;;5.13;3.50;;;;;;;;;;5064950;28;20024;-75
2023/08/08 02:48:40;;;;;;;4.13;3.30;;;;;;;;;;5052533;28;20452;-74
2023/08/08 02:51:06;;;;;;;4.38;3.05;;;;;;;;;;5054994;28;20091;-75
2023/08/08 02:53:32;;;;;;;4.70;3.13;;;;;;;;;;5058393;28;20049;-75
2023/08/08 02:55:58;;;;;;;4.30;3.50;;;;;;;;;;5057838;28;20063;-75
2023/08/08 02:58:24;;;;;;;7.28;3.67;;;;;;;;;;5058302;28;20025;-75
2023/08/08 03:00:50;;;;;;;4.63;3.88;;;;;;;;;;5065197;28;20029;-75
2023/08/08 03:03:17;;;;;;;5.93;3.30;;;;;;;;;;5053877;28;20526;-75
2023/08/08 03:05:44;;;;;;;5.15;3.17;;;;;;;;;;5054250;28;20393;-75
2023/08/08 03:08:10;;;;;;;4.90;3.20;;;;;;;;;;5064058;28;20437;-75
2023/08/08 03:10:37;;;;;;;4.05;3.42;;;;;;;;;;5066036;28;20077;-74
2023/08/08 03:13:03;;;;;;;4.95;3.35;;;;;;;;;;5050097;28;20749;-75
2023/08/08 03:15:30;;;;;;;5.03;3.30;;;;;;;;;;5062971;28;20143;-75
2023/08/08 03:17:56;;;;;;;4.07;3.40;;;;;;;;;;5049206;28;20031;-74
2023/08/08 03:20:23;;;;;;;3.88;3.17;;;;;;;;;;5067744;28;20044;-75
2023/08/08 03:22:49;;;;;;;3.95;3.30;;;;;;;;;;5046032;28;20059;-75
2023/08/08 03:25:15;;;;;;;5.00;3.40;;;;;;;;;;5063875;28;20115;-75
2023/08/08 03:27:42;;;;;;;3.95;3.22;;;;;;;;;;5059083;28;20437;-74
2023/08/08 03:30:08;;;;;;;5.90;3.30;;;;;;;;;;5060642;28;20063;-75
2023/08/08 03:32:35;;;;;;;5.50;3.20;;;;;;;;;;5065317;28;20031;-75
2023/08/08 03:35:01;;;;;;;4.78;3.40;;;;;;;;;;5054198;28;20037;-75
2023/08/08 03:37:27;;;;;;;4.70;3.58;;;;;;;;;;5056908;28;20032;-75
2023/08/08 03:39:53;;;;;;;4.35;3.25;;;;;;;;;;5056746;28;20033;-75
2023/08/08 03:42:19;;;;;;;5.93;3.40;;;;;;;;;;5054544;28;20170;-75
2023/08/08 03:44:45;;;;;;;4.30;3.25;;;;;;;;;;5061229;28;20028;-75
2023/08/08 03:47:11;;;;;;;6.07;3.58;;;;;;;;;;5057698;28;20032;-75
2023/08/08 03:49:38;;;;;;;5.13;3.28;;;;;;;;;;5059138;28;20489;-75
2023/08/08 03:52:04;;;;;;;4.47;3.08;;;;;;;;;;5054248;28;20031;-75
2023/08/08 03:54:31;;;;;;;6.45;3.45;;;;;;;;;;5058756;28;20366;-75
2023/08/08 03:56:57;;;;;;;5.82;3.83;;;;;;;;;;5058395;28;20084;-75
2023/08/08 03:59:23;;;;;;;5.88;3.67;;;;;;;;;;5056688;28;20047;-75
2023/08/08 04:01:49;;;;;;;4.40;3.30;;;;;;;;;;5066618;28;20035;-75
2023/08/08 04:04:15;;;;;;;4.50;3.58;;;;;;;;;;5052332;28;20040;-75
2023/08/08 04:06:41;;;;;;;4.75;3.03;;;;;;;;;;5052770;28;20476;-75
2023/08/08 04:09:08;;;;;;;6.68;3.53;;;;;;;;;;5052566;28;20025;-75
2023/08/08 04:11:35;;;;;;;3.85;3.22;;;;;;;;;;5049895;28;20107;-74
2023/08/08 04:14:02;;;;;;;4.38;3.45;;;;;;;;;;5054003;28;20059;-74
2023/08/08 04:16:28;;;;;;;4.38;3.50;;;;;;;;;;5049123;28;20032;-74
2023/08/08 04:18:54;;;;;;;3.83;3.25;;;;;;;;;;5045695;28;20555;-74
2023/08/08 04:21:20;;;;;;;5.93;3.47;;;;;;;;;;5050238;28;20128;-74
2023/08/08 04:23:46;;;;;;;4.93;3.60;;;;;;;;;;5057250;28;20037;-75
2023/08/08 04:26:15;;;;;;;4.88;3.55;;;;;;;;;;5052632;28;20449;-74
2023/08/08 04:28:41;;;;;;;6.07;3.50;;;;;;;;;;5051053;28;20033;-75
2023/08/08 04:31:07;;;;;;;4.82;3.80;;;;;;;;;;5054165;28;20028;-74
2023/08/08 04:33:33;;;;;;;8.43;3.95;;;;;;;;;;5048188;28;20039;-74
2023/08/08 04:35:59;;;;;;;4.65;3.08;;;;;;;;;;5045134;28;20048;-74
2023/08/08 04:38:25;;;;;;;6.85;3.60;;;;;;;;;;5060452;28;20024;-75
2023/08/08 04:40:52;;;;;;;4.55;3.10;;;;;;;;;;5053205;28;20029;-75
2023/08/08 04:43:18;;;;;;;4.28;3.40;;;;;;;;;;5046183;28;20074;-75
2023/08/08 04:45:44;;;;;;;7.70;3.65;;;;;;;;;;5053835;28;20036;-75
2023/08/08 04:48:12;;;;;;;3.83;3.40;;;;;;;;;;5057414;28;20105;-74
2023/08/08 04:50:39;;;;;;;5.22;4.03;;;;;;;;;;5045847;28;20443;-74
2023/08/08 04:53:05;;;;;;;6.20;3.28;;;;;;;;;;5056707;28;20053;-74
2023/08/08 04:55:31;;;;;;;4.57;3.47;;;;;;;;;;5051997;28;20051;-74
2023/08/08 04:57:57;;;;;;;4.22;3.15;;;;;;;;;;5052359;28;20031;-75
2023/08/08 05:00:23;;;;;;;4.05;3.50;;;;;;;;;;5065264;28;20056;-74
2023/08/08 05:02:49;;;;;;;3.88;3.30;;;;;;;;;;5055263;28;20119;-74
2023/08/08 05:05:15;;;;;;;4.32;3.30;;;;;;;;;;5073439;28;20031;-74
2023/08/08 05:07:41;;;;;;;6.55;3.90;;;;;;;;;;5056051;28;20024;-74
2023/08/08 05:10:07;;;;;;;4.75;3.22;;;;;;;;;;5052838;28;20040;-75
2023/08/08 05:12:34;;;;;;;9.48;3.50;;;;;;;;;;5066009;28;20020;-75
2023/08/08 05:15:00;;;;;;;5.15;3.13;;;;;;;;;;5052924;28;20020;-75
2023/08/08 05:17:26;;;;;;;3.55;3.13;;;;;;;;;;5050345;28;20750;-74
2023/08/08 05:19:52;;;;;;;7.00;3.70;;;;;;;;;;5064123;28;20794;-74
2023/08/08 05:22:18;;;;;;;4.78;3.22;;;;;;;;;;5052688;28;20029;-75
2023/08/08 05:24:44;;;;;;;6.18;3.42;;;;;;;;;;5061553;28;20054;-75
2023/08/08 05:27:11;;;;;;;4.70;3.35;;;;;;;;;;5058673;28;20024;-74
2023/08/08 05:29:38;;;;;;;4.60;3.60;;;;;;;;;;5060475;28;20027;-74
2023/08/08 05:32:06;;;;;;;5.43;3.40;;;;;;;;;;5058681;28;20070;-74
2023/08/08 05:34:33;;;;;;;6.43;3.60;;;;;;;;;;5057336;28;20543;-74
2023/08/08 05:36:59;;;;;;;7.32;3.67;;;;;;;;;;5064057;28;20040;-74
2023/08/08 05:39:25;;;;;;;4.63;3.38;;;;;;;;;;5055181;28;20033;-78
2023/08/08 05:41:51;;;;;;;6.20;3.58;;;;;;;;;;5053743;28;20043;-75
2023/08/08 05:44:17;;;;;;;5.07;3.22;;;;;;;;;;5058249;28;20084;-74
2023/08/08 05:46:43;;;;;;;4.90;3.60;;;;;;;;;;5059715;28;20071;-75
2023/08/08 05:49:10;;;;;;;6.15;3.88;;;;;;;;;;5057652;28;20060;-75
2023/08/08 05:51:36;;;;;;;4.05;3.50;;;;;;;;;;5062274;28;20078;-75
2023/08/08 05:54:02;;;;;;;6.00;3.67;;;;;;;;;;5053975;28;20039;-75
2023/08/08 05:56:38;;;;;;;5.93;3.78;;;;;;;;;;5059061;28;20028;-74
2023/08/08 05:59:04;;;;;;;5.10;3.70;;;;;;;;;;5061355;28;20289;-74
2023/08/08 06:01:31;;;;;;;4.60;3.30;;;;;;;;;;5047069;28;20029;-74
2023/08/08 06:04:00;;;;;;;4.45;3.38;;;;;;;;;;5046633;28;20376;-75
2023/08/08 06:06:27;;;;;;;5.85;3.22;;;;;;;;;;5044215;28;20056;-75
2023/08/08 06:08:53;;;;;;;5.03;3.60;;;;;;;;;;5052146;28;20033;-75
2023/08/08 06:11:21;;;;;;;3.97;3.35;;;;;;;;;;5047096;28;20104;-76
2023/08/08 06:13:48;;;;;;;6.97;3.10;;;;;;;;;;5053134;28;20033;-75
2023/08/08 06:16:14;;;;;;;4.30;3.05;;;;;;;;;;5056293;28;20516;-75
2023/08/08 06:18:40;;;;;;;3.75;2.72;;;;;;;;;;5059441;28;20487;-75
2023/08/08 06:21:07;;;;;;;5.10;3.15;;;;;;;;;;5045422;28;20568;-75
2023/08/08 06:23:33;;;;;;;6.35;3.08;;;;;;;;;;5056172;28;20089;-75
2023/08/08 06:25:59;;;;;;;4.95;3.30;;;;;;;;;;5042720;28;20373;-76
2023/08/08 06:28:25;;;;;;;3.63;2.80;;;;;;;;;;5057259;28;20068;-75
2023/08/08 06:30:51;;;;;;;3.17;2.78;;;;;;;;;;5049420;28;20032;-75
2023/08/08 06:33:17;;;;;;;6.20;3.03;;;;;;;;;;5055282;28;20020;-72
2023/08/08 06:35:45;;;;;;;4.10;3.30;;;;;;;;;;5047577;28;20044;-74
2023/08/08 06:38:11;;;;;;;4.72;2.97;;;;;;;;;;5052275;28;20025;-75
2023/08/08 06:40:37;;;;;;;5.20;3.00;;;;;;;;;;5050661;28;20082;-72
2023/08/08 06:43:03;;;;;;;3.35;3.00;;;;;;;;;;5058495;28;20041;-73
2023/08/08 06:45:29;;;;;;;5.63;2.70;;;;;;;;;;5052196;28;20127;-73
2023/08/08 06:47:56;;;;;;;6.97;3.70;;;;;;;;;;5056908;28;20033;-73
2023/08/08 06:50:24;;;;;;;3.78;2.72;;;;;;;;;;5060674;28;20032;-74
2023/08/08 06:52:50;;;;;;;2.95;2.45;;;;;;;;;;5053874;28;20024;-74
2023/08/08 06:55:16;;;;;;;15.40;6.47;;;;;;;;;;5059607;28;20032;-74
2023/08/08 06:57:42;;;;;;;3.05;2.58;;;;;;;;;;5056256;28;20428;-73
2023/08/08 07:00:10;;;;;;;4.05;2.90;;;;;;;;;;5052710;28;20471;-73
2023/08/08 07:02:38;;;;;;;3.22;2.78;;;;;;;;;;5057136;28;20033;-72
2023/08/08 07:05:04;;;;;;;3.47;2.55;;;;;;;;;;5067857;28;20467;-72
2023/08/08 07:07:33;;;;;;;3.25;2.55;;;;;;;;;;5070041;28;20074;-73
2023/08/08 07:09:59;;;;;;;3.33;2.40;;;;;;;;;;5053860;28;20419;-73
2023/08/08 07:12:25;;;;;;;3.70;2.42;;;;;;;;;;5054005;28;20211;-74
2023/08/08 07:14:51;;;;;;;3.72;2.92;;;;;;;;;;5059614;28;20035;-74
2023/08/08 07:17:17;;;;;;;2.67;2.40;;;;;;;;;;5055452;28;20107;-72
2023/08/08 07:19:43;;;;;;;5.22;2.38;;;;;;;;;;5064287;28;20025;-72
2023/08/08 07:22:09;;;;;;;3.03;2.35;;;;;;;;;;5049946;28;20124;-72
2023/08/08 07:24:36;;;;;;;2.88;2.55;;;;;;;;;;5058877;28;20461;-72
2023/08/08 07:27:02;;;;;;;3.47;2.50;;;;;;;;;;5055508;28;20529;-73
2023/08/08 07:29:28;;;;;;;3.03;2.28;;;;;;;;;;5073420;28;20115;-72
2023/08/08 07:31:54;;;;;;;4.00;2.38;;;;;;;;;;5050055;28;20538;-72
2023/08/08 07:34:21;;;;;;;3.28;2.50;;;;;;;;;;5051491;28;20029;-74
2023/08/08 07:36:47;;;;;;;3.75;2.58;;;;;;;;;;5056382;28;20062;-73
2023/08/08 07:39:14;;;;;;;3.90;2.30;;;;;;;;;;5050752;28;20089;-74
2023/08/08 07:41:41;;;;;;;5.50;2.60;;;;;;;;;;5055924;28;20407;-73
2023/08/08 07:44:07;;;;;;;3.45;2.75;;;;;;;;;;5059907;28;20033;-73
2023/08/08 07:46:33;;;;;;;3.63;2.80;;;;;;;;;;5055013;28;20039;-74
2023/08/08 07:49:03;;;;;;;2.95;2.58;;;;;;;;;;5058255;28;20424;-73
2023/08/08 07:51:29;;;;;;;5.07;3.00;;;;;;;;;;5056918;28;20372;-73
2023/08/08 07:53:58;;;;;;;4.55;2.40;;;;;;;;;;5059343;28;20483;-73
2023/08/08 07:56:24;;;;;;;5.93;2.35;;;;;;;;;;5053269;28;20369;-73
2023/08/08 07:58:50;;;;;;;4.80;2.90;;;;;;;;;;5061485;28;20218;-74
2023/08/08 08:01:16;;;;;;;3.47;2.30;;;;;;;;;;5053370;28;20074;-72
2023/08/08 08:03:46;;;;;;;4.30;2.50;;;;;;;;;;5061878;28;20628;-73
2023/08/08 08:06:12;;;;;;;4.30;2.75;;;;;;;;;;5049993;28;20025;-72
2023/08/08 08:08:39;;;;;;;4.00;2.47;;;;;;;;;;5049419;28;20068;-72
2023/08/08 08:11:05;;;;;;;4.32;2.58;;;;;;;;;;5056655;28;20492;-72
2023/08/08 08:13:31;;;;;;;3.85;2.60;;;;;;;;;;5055228;28;20032;-72
2023/08/08 08:15:58;;;;;;;4.07;2.65;;;;;;;;;;5049064;28;20241;-72
2023/08/08 08:18:28;;;;;;;3.95;2.47;;;;;;;;;;5049422;28;20032;-73
2023/08/08 08:20:55;;;;;;;6.25;2.50;;;;;;;;;;5057916;28;20031;-73
2023/08/08 08:23:21;;;;;;;4.82;2.50;;;;;;;;;;5055362;28;20028;-72
2023/08/08 08:25:50;;;;;;;3.50;2.45;;;;;;;;;;5058029;28;20063;-73
2023/08/08 08:28:20;;;;;;;3.08;2.70;;;;;;;;;;5069641;28;20308;-72
2023/08/08 08:30:49;;;;;;;3.53;2.33;;;;;;;;;;5043211;28;20091;-73
2023/08/08 08:33:15;;;;;;;3.97;2.60;;;;;;;;;;5058889;28;20068;-73
2023/08/08 08:35:42;;;;;;;2.80;2.47;;;;;;;;;;5049453;28;20114;-72
2023/08/08 08:38:08;;;;;;;4.50;3.20;;;;;;;;;;5049952;28;20487;-73
2023/08/08 08:40:36;;;;;;;4.38;3.50;;;;;;;;;;5062801;28;20040;-72
2023/08/08 08:43:03;;;;;;;5.80;3.10;;;;;;;;;;5036738;28;20423;-74
2023/08/08 08:45:30;;;;;;;4.43;2.83;;;;;;;;;;5064477;28;20039;-73
2023/08/08 08:48:00;;;;;;;5.95;3.72;;;;;;;;;;5057438;28;20112;-73
2023/08/08 08:50:27;;;;;;;3.95;3.30;;;;;;;;;;5053984;28;20028;-73
2023/08/08 08:52:55;;;;;;;4.72;2.40;;;;;;;;;;5050553;28;20101;-73
2023/08/08 08:55:22;;;;;;;6.63;3.38;;;;;;;;;;5050461;28;20047;-72
2023/08/08 08:57:51;;;;;;;4.00;2.58;;;;;;;;;;5050718;28;20017;-72
2023/08/08 09:00:17;;;;;;;3.53;2.35;;;;;;;;;;5057592;28;20099;-73
2023/08/08 09:02:43;;;;;;;2.55;2.35;;;;;;;;;;5056353;28;20500;-73
2023/08/08 09:05:12;;;;;;;4.65;2.30;;;;;;;;;;5051655;28;20620;-73
2023/08/08 09:07:41;;;;;;;2.53;2.10;;;;;;;;;;5062994;28;20035;-73
2023/08/08 09:10:08;;;;;;;5.65;2.25;;;;;;;;;;5057123;28;20424;-73
2023/08/08 09:12:36;;;;;;;2.70;2.30;;;;;;;;;;5056628;28;20477;-74
2023/08/08 09:15:04;;;;;;;5.00;2.10;;;;;;;;;;5053800;28;20047;-73
2023/08/08 09:17:31;;;;;;;2.70;2.00;;;;;;;;;;5058623;28;20114;-73
2023/08/08 09:20:00;;;;;;;3.33;2.30;;;;;;;;;;5059957;28;20028;-73
2023/08/08 09:22:28;;;;;;;2.70;1.95;;;;;;;;;;5073775;28;20120;-73
2023/08/08 09:24:56;;;;;;;3.72;2.20;;;;;;;;;;5049518;28;20107;-73
2023/08/08 09:27:22;;;;;;;3.85;2.30;;;;;;;;;;5059128;28;20021;-73
2023/08/08 09:29:48;;;;;;;2.63;2.20;;;;;;;;;;5049594;28;20455;-73
2023/08/08 09:32:16;;;;;;;2.35;1.83;;;;;;;;;;5056643;28;20016;-73
2023/08/08 09:34:43;;;;;;;4.18;2.38;;;;;;;;;;5056058;28;20075;-73
2023/08/08 09:37:10;;;;;;;4.03;2.13;;;;;;;;;;5055079;28;20605;-73
2023/08/08 09:39:37;;;;;;;3.22;1.83;;;;;;;;;;5054510;28;20021;-72
2023/08/08 09:42:06;;;;;;;2.45;2.25;;;;;;;;;;5058561;28;20029;-73
2023/08/08 09:44:35;;;;;;;3.10;2.10;;;;;;;;;;5070320;28;20400;-74
2023/08/08 09:47:01;;;;;;;2.60;2.00;;;;;;;;;;5062014;28;20077;-73
2023/08/08 09:49:27;;;;;;;2.55;1.83;;;;;;;;;;5058006;28;20032;-73
2023/08/08 09:51:54;;;;;;;2.67;1.80;;;;;;;;;;5050867;28;20032;-73
2023/08/08 09:54:21;;;;;;;2.88;2.00;;;;;;;;;;5055744;28;20056;-73
2023/08/08 09:56:51;;;;;;;2.83;2.00;;;;;;;;;;5052430;28;20109;-72
2023/08/08 09:59:20;;;;;;;2.30;1.70;;;;;;;;;;5059809;28;20024;-73
2023/08/08 10:01:47;;;;;;;1.92;1.73;;;;;;;;;;5053245;28;20037;-73
2023/08/08 10:04:13;;;;;;;3.15;1.83;;;;;;;;;;5053214;28;20032;-73
2023/08/08 10:06:41;;;;;;;2.67;2.05;;;;;;;;;;5049673;28;20032;-73
2023/08/08 10:09:08;;;;;;;3.55;1.77;;;;;;;;;;5062558;28;20082;-73
2023/08/08 10:11:35;;;;;;;2.10;1.90;;;;;;;;;;5050585;28;20033;-74
2023/08/08 10:14:04;;;;;;;2.83;1.90;;;;;;;;;;5056023;28;20023;-73
2023/08/08 10:16:33;;;;;;;1.95;1.83;;;;;;;;;;5053686;28;20079;-73
2023/08/08 10:19:00;;;;;;;2.67;2.47;;;;;;;;;;5052042;28;20024;-73
2023/08/08 10:21:27;;;;;;;3.17;1.65;;;;;;;;;;5059687;28;20054;-73
2023/08/08 10:24:04;;;;;;;2.95;1.80;;;;;;;;;;5052334;28;20460;-74
2023/08/08 10:26:30;;;;;;;3.53;2.30;;;;;;;;;;5054991;28;20036;-73
2023/08/08 10:28:57;;;;;;;2.20;1.73;;;;;;;;;;5057204;28;20029;-73
2023/08/08 10:31:23;;;;;;;2.28;2.00;;;;;;;;;;5056941;28;20035;-73
2023/08/08 10:33:50;;;;;;;2.88;1.90;;;;;;;;;;5051448;28;20095;-73
2023/08/08 10:36:17;;;;;;;2.80;2.33;;;;;;;;;;5057249;28;20110;-73
2023/08/08 10:38:46;;;;;;;2.40;1.70;;;;;;;;;;5059703;28;20443;-73
2023/08/08 10:41:13;;;;;;;2.17;1.80;;;;;;;;;;5053286;28;20070;-73
2023/08/08 10:43:48;;;;;;;4.97;1.90;;;;;;;;;;5065442;28;20104;-73
2023/08/08 10:46:14;;;;;;;;;;;;;;;;;;5052477;28;20108;-74
2023/08/08 10:48:54;;;;;;;2.17;1.80;;;;;;;;;;5071494;28;20446;-74
2023/08/08 10:51:21;;;;;;;3.28;1.95;;;;;;;;;;5056990;28;20381;-73
2023/08/08 10:53:47;;;;;;;4.93;1.92;;;;;;;;;;5058357;28;20031;-74
2023/08/08 10:56:14;;;;;;;2.40;1.90;;;;;;;;;;5059020;28;20032;-74
2023/08/08 10:58:42;;;;;;;1.90;1.70;;;;;;;;;;5055460;28;20088;-73
2023/08/08 11:01:09;;;;;;;2.55;1.70;;;;;;;;;;5050604;28;20024;-73
2023/08/08 11:03:36;;;;;;;2.45;1.83;;;;;;;;;;5060597;28;20525;-73
2023/08/08 11:06:03;;;;;;;4.20;1.88;;;;;;;;;;5057175;28;20059;-73
2023/08/08 11:08:32;;;;;;;2.50;1.90;;;;;;;;;;5061263;28;20798;-74
2023/08/08 11:10:59;;;;;;;2.35;1.90;;;;;;;;;;5053995;28;20106;-73
2023/08/08 11:13:25;;;;;;;2.97;1.80;;;;;;;;;;5059218;28;20032;-73
2023/08/08 11:15:51;;;;;;;2.20;1.60;;;;;;;;;;5058956;28;20025;-73
2023/08/08 11:18:17;;;;;;;2.42;1.77;;;;;;;;;;5070955;28;20108;-73
2023/08/08 11:20:44;;;;;;;2.35;1.92;;;;;;;;;;5053322;28;20447;-73
2023/08/08 11:23:12;;;;;;;2.72;1.65;;;;;;;;;;5059710;28;20032;-74
2023/08/08 11:25:40;;;;;;;2.08;1.77;;;;;;;;;;5050748;28;20012;-73
2023/08/08 11:28:06;;;;;;;1.83;1.60;;;;;;;;;;5059234;28;20042;-73
2023/08/08 11:30:35;;;;;;;2.33;1.73;;;;;;;;;;5043960;28;20052;-73
2023/08/08 11:33:01;;;;;;;1.60;1.50;;;;;;;;;;5053387;28;20021;-73
2023/08/08 11:35:28;;;;;;;2.92;1.70;;;;;;;;;;5055092;28;20448;-74
2023/08/08 11:37:55;;;;;;;3.00;2.00;;;;;;;;;;5056716;28;20476;-73
2023/08/08 11:40:23;;;;;;;1.90;1.70;;;;;;;;;;5051094;28;20025;-74
2023/08/08 11:42:51;;;;;;;2.33;1.95;;;;;;;;;;5068498;28;20024;-73
2023/08/08 11:45:17;;;;;;;2.88;1.88;;;;;;;;;;5055116;28;20249;-73
2023/08/08 11:47:43;;;;;;;2.17;1.77;;;;;;;;;;5056968;28;20440;-73
2023/08/08 11:50:11;;;;;;;3.63;2.30;;;;;;;;;;5048333;28;20020;-73
2023/08/08 11:52:40;;;;;;;4.75;2.20;;;;;;;;;;5069645;28;20025;-73
2023/08/08 11:55:07;;;;;;;2.38;1.90;;;;;;;;;;5052137;28;20559;-73
2023/08/08 11:57:34;;;;;;;2.60;1.77;;;;;;;;;;5056335;28;20025;-73
2023/08/08 12:00:02;;;;;;;2.75;1.88;;;;;;;;;;5057135;28;20391;-73
2023/08/08 12:02:28;;;;;;;2.67;2.10;;;;;;;;;;5069460;28;20147;-73
2023/08/08 12:04:57;;;;;;;2.00;1.70;;;;;;;;;;5047845;28;20028;-73
2023/08/08 12:07:23;;;;;;;2.20;2.00;;;;;;;;;;5053687;28;20476;-73
2023/08/08 12:09:50;;;;;;;2.10;1.88;;;;;;;;;;5056005;28;20031;-72
2023/08/08 12:12:16;;;;;;;2.00;1.80;;;;;;;;;;5052347;28;20047;-72
2023/08/08 12:14:44;;;;;;;2.00;1.77;;;;;;;;;;5058001;28;20472;-72
2023/08/08 12:17:10;;;;;;;2.83;1.85;;;;;;;;;;5050114;28;20756;-72
2023/08/08 12:19:36;;;;;;;1.73;1.63;;;;;;;;;;5055578;28;20032;-72
2023/08/08 12:22:03;;;;;;;1.90;1.65;;;;;;;;;;5059860;28;20040;-73
2023/08/08 12:24:32;;;;;;;2.55;1.77;;;;;;;;;;5049425;28;20085;-72
2023/08/08 12:26:59;;;;;;;2.72;1.70;;;;;;;;;;5050861;28;20029;-73
2023/08/08 12:29:25;;;;;;;3.30;2.10;;;;;;;;;;5059035;28;20032;-73
2023/08/08 12:31:51;;;;;;;2.88;1.90;;;;;;;;;;5054317;28;20020;-73
2023/08/08 12:34:17;;;;;;;5.15;1.90;;;;;;;;;;5050740;28;20051;-73
2023/08/08 12:36:44;;;;;;;3.63;2.30;;;;;;;;;;5051958;28;20056;-74
2023/08/08 12:39:10;;;;;;;3.22;2.15;;;;;;;;;;5059499;28;20892;-74
2023/08/08 12:41:36;;;;;;;2.80;1.80;;;;;;;;;;5059588;28;20056;-73
2023/08/08 12:44:03;;;;;;;1.90;1.70;;;;;;;;;;5056817;28;20029;-73
2023/08/08 12:46:29;;;;;;;4.82;2.17;;;;;;;;;;5041379;28;20031;-72
2023/08/08 12:48:55;;;;;;;2.22;2.03;;;;;;;;;;5046652;28;21018;-73
2023/08/08 12:51:21;;;;;;;2.03;1.92;;;;;;;;;;5066930;28;20312;-73
2023/08/08 12:53:47;;;;;;;1.90;1.70;;;;;;;;;;5049999;28;20029;-73
2023/08/08 12:56:13;;;;;;;2.88;2.00;;;;;;;;;;5053487;28;20104;-72
2023/08/08 12:58:40;;;;;;;3.28;1.83;;;;;;;;;;5051016;28;20107;-73
2023/08/08 13:01:07;;;;;;;3.00;1.65;;;;;;;;;;5049809;28;20068;-74
2023/08/08 13:03:37;;;;;;;2.17;1.70;;;;;;;;;;5054478;28;20106;-74
2023/08/08 13:06:03;;;;;;;2.47;1.75;;;;;;;;;;5044701;28;20024;-75
2023/08/08 13:08:29;;;;;;;2.63;1.70;;;;;;;;;;5051710;28;20614;-74
2023/08/08 13:10:56;;;;;;;1.50;1.40;;;;;;;;;;5050453;28;20029;-75
2023/08/08 13:13:24;;;;;;;3.45;2.47;;;;;;;;;;5051921;28;20059;-74
2023/08/08 13:15:51;;;;;;;2.40;1.80;;;;;;;;;;5048325;28;20538;-75
2023/08/08 13:18:17;;;;;;;1.50;1.40;;;;;;;;;;5052171;28;20751;-72
2023/08/08 13:20:43;;;;;;;1.50;1.40;;;;;;;;;;5051234;28;20111;-72
2023/08/08 13:23:09;;;;;;;1.50;1.40;;;;;;;;;;5050097;28;20028;-73
2023/08/08 13:25:35;;;;;;;1.50;1.40;;;;;;;;;;5047535;28;20067;-72
2023/08/08 13:28:03;;;;;;;1.60;1.50;;;;;;;;;;5050974;28;20399;-72
2023/08/08 13:30:29;;;;;;;1.50;1.40;;;;;;;;;;5053707;28;20024;-73
2023/08/08 13:32:55;;;;;;;1.60;1.50;;;;;;;;;;5051968;28;20491;-73
2023/08/08 13:35:23;;;;;;;1.60;1.50;;;;;;;;;;5044103;28;20045;-73
2023/08/08 13:37:51;;;;;;;2.65;1.40;;;;;;;;;;5054262;28;20028;-73
2023/08/08 13:40:18;;;;;;;3.40;1.75;;;;;;;;;;5049390;28;20028;-74
2023/08/08 13:42:47;;;;;;;2.22;2.03;;;;;;;;;;5050031;28;20559;-74
2023/08/08 13:45:14;;;;;;;1.70;1.60;;;;;;;;;;5053503;28;20040;-74
2023/08/08 13:47:40;;;;;;;2.83;1.55;;;;;;;;;;5057422;28;20036;-74
2023/08/08 13:50:07;;;;;;;1.77;1.67;;;;;;;;;;5071664;28;20074;-74
2023/08/08 13:52:34;;;;;;;1.80;1.40;;;;;;;;;;5057245;28;20028;-74
2023/08/08 13:55:02;;;;;;;1.50;1.40;;;;;;;;;;5053767;28;20542;-73
2023/08/08 13:57:28;;;;;;;1.67;1.55;;;;;;;;;;5053471;28;20447;-73
2023/08/08 13:59:54;;;;;;;2.28;1.55;;;;;;;;;;5057028;28;20037;-74
2023/08/08 14:02:21;;;;;;;1.70;1.60;;;;;;;;;;5066701;28;20033;-76
2023/08/08 14:04:47;;;;;;;2.58;1.38;;;;;;;;;;5053941;28;20475;-76
2023/08/08 14:07:13;;;;;;;2.55;1.55;;;;;;;;;;5056308;28;20562;-76
2023/08/08 14:09:39;;;;;;;1.65;1.55;;;;;;;;;;5057592;28;20446;-76
2023/08/08 14:12:05;;;;;;;1.90;1.67;;;;;;;;;;5056204;28;20112;-76
2023/08/08 14:14:31;;;;;;;3.33;1.70;;;;;;;;;;5049542;28;20033;-76
2023/08/08 14:16:58;;;;;;;2.10;1.80;;;;;;;;;;5050356;28;20017;-76
2023/08/08 14:19:24;;;;;;;1.88;1.40;;;;;;;;;;5049852;28;20047;-76
2023/08/08 14:21:50;;;;;;;1.55;1.45;;;;;;;;;;5065871;28;20271;-75
2023/08/08 14:24:16;;;;;;;1.65;1.55;;;;;;;;;;5056224;28;20086;-76
2023/08/08 14:26:42;;;;;;;1.45;1.30;;;;;;;;;;5058302;28;20032;-76
2023/08/08 14:29:09;;;;;;;1.65;1.50;;;;;;;;;;5057078;28;20106;-76
2023/08/08 14:31:35;;;;;;;1.85;1.50;;;;;;;;;;5057111;28;20036;-76
2023/08/08 14:34:01;;;;;;;1.60;1.50;;;;;;;;;;5050155;28;20024;-75
2023/08/08 14:36:27;;;;;;;3.20;1.67;;;;;;;;;;5055378;28;20049;-76
2023/08/08 14:38:53;;;;;;;1.50;1.40;;;;;;;;;;5053971;28;20085;-76
2023/08/08 14:41:19;;;;;;;3.70;1.40;;;;;;;;;;5068335;28;20029;-76